Seward, NE

7:24 AM CST on November 23, 2014 (GMT -0600)
York Municipal | Change Station
CLOSE
Current Station
Airport
Location: York,
Elevation: 1670 ft
Nearby Weather Stations

Elev 1670 ft 40.90 °N, 97.62 °W | Updated 9 minutes ago

Overcast
Overcast
48 °F
Feels Like 48 °F
N
6
Wind Variable Wind from West

Today
High -- | Low -- °F
--% Chance of Precip.
Yesterday
High -- | Low -- °F
Precip. -- in
7:25 AM 5:04 PM
New Moon, 1% visible
Pressure 29.48 in
Visibility 8.0 miles
Clouds Few 600 ft
Mostly Cloudy 2400 ft
Overcast 4500 ft
Dew Point 48 °F
Humidity 100%
Rainfall 0.00 in
Snow Depth Not available.
UV 0 out of 12
Pollen .10 out of 12
Air Quality Not available.
Flu Activity Not available.
METAR KJYR 231315Z AUTO 28005KT 8SM FEW006 BKN024 OVC045 09/09 A2948 RMK AO2

More Conditions Fewer Conditions

Pressure 29.48 in
Visibility 8.0 miles
Clouds Few 600 ft
Mostly Cloudy 2400 ft
Overcast 4500 ft
Dew Point 48 °F
Humidity 100%
Rainfall 0.00 in
Snow Depth Not available.
UV 0 out of 12
Pollen .10 out of 12
Air Quality Not available.
Flu Activity Not available.
METAR KJYR 231315Z AUTO 28005KT 8SM FEW006 BKN024 OVC045 09/09 A2948 RMK AO2

More Conditions Fewer Conditions

10-Day Weather Forecast

Almanac

Astronomy

Nov. 23, 2014 Rise Set
Actual Time
Civil Twilight
Nautical Twilight
Astronomical Twilight
Moon
Length of Visible Light
Length of Day
Tomorrow will be .
, % of the Moon is Illuminated

Today's Extremes

State Highs State Lows

Community

WunderPhotos

Upload Photos

1,773,054 photos uploaded!

WunderBlogs® & News

Nearby

Air Quality

  Air Quality AQ Index Pollutant
Not available.

Snow Depth

Station Depth Elevation

Earthquake Activity

City Distance Mag. Time & Date
Minimum magnitude displayed is 2.5.

Coastal Water Temperatures

Place Temperature

Nearby Weather Stations